Terminal Aerodrome Forecast
Issued by NWS Charleston, WV

Current Version | Previous Version | Graphics & Text | Print | Product List | Glossary On
Versions: 1 2 3 4 5 6 7 8 9 10 11 12 13 14 15 16 17 18 19 20 21 22 23 24 25 26 27 28 29
164
FTUS41 KRLX 181223 AAA
TAFEKN
TAF AMD
KEKN 181223Z 1812/1912 27008G15KT 5SM -RA BKN015 OVC025
     FM181600 29009G15KT P6SM OVC015
     FM190000 28004KT P6SM BKN015=

USA.gov is the U.S. government's official web portal to all federal, state and local government web resources and services.